Time;durP1;ratioP1;P1;durP2;ratioP2;P2;SDS_P1;SDS_P2;PMS_P1;PMS_P2;Temp;Humidity;BMP_temperature;BMP_pressure;BME280_temperature;BME280_humidity;BME280_pressure;Samples;Min_cycle;Max_cycle;Signal;HPM_P1;HPM_P2
2022/11/15 00:03:03;;;;;;;;;26.00;22.50;;;;;10.09;72.21;99117.31;6187036;28;97465;-62
2022/11/15 00:06:25;;;;;;;;;24.60;22.20;;;;;10.08;71.90;99114.81;6187914;28;96317;-60
2022/11/15 00:09:47;;;;;;;;;28.60;25.00;;;;;10.00;71.85;99107.81;6163543;28;97557;-61
2022/11/15 00:13:12;;;;;;;;;23.00;22.00;;;;;9.95;71.56;99108.44;6171193;28;96618;-60
2022/11/15 00:16:35;;;;;;;;;24.40;22.40;;;;;9.96;71.34;99107.41;6186208;28;97425;-60
2022/11/15 00:19:58;;;;;;;;;26.20;24.20;;;;;10.00;71.40;99105.13;6187262;28;96390;-59
2022/11/15 00:23:19;;;;;;;;;23.00;22.00;;;;;10.10;72.09;99105.50;6187539;28;96220;-61
2022/11/15 00:26:41;;;;;;;;;23.20;20.00;;;;;10.19;71.71;99101.53;6174831;28;96900;-62
2022/11/15 00:30:03;;;;;;;;;28.00;25.00;;;;;10.25;71.65;99099.88;6186559;28;98089;-61
2022/11/15 00:33:26;;;;;;;;;20.60;19.60;;;;;10.30;70.97;99094.66;6186355;28;96621;-60
2022/11/15 00:36:49;;;;;;;;;25.50;20.50;;;;;10.28;70.01;99086.78;6186267;28;96333;-60
2022/11/15 00:40:12;;;;;;;;;26.75;24.00;;;;;10.20;70.56;99087.03;6187474;28;96316;-60
2022/11/15 00:43:34;;;;;;;;;24.80;23.40;;;;;10.24;70.84;99082.03;6185979;28;96905;-61
2022/11/15 00:46:56;;;;;;;;;26.80;22.80;;;;;10.28;70.85;99069.78;6186675;28;96312;-61
2022/11/15 00:50:20;;;;;;;;;25.75;23.25;;;;;10.29;70.75;99056.09;6187094;28;96302;-61
2022/11/15 00:53:41;;;;;;;;;27.00;26.00;;;;;10.10;70.47;99054.31;6186950;28;96555;-59
2022/11/15 00:57:03;;;;;;;;;27.40;23.40;;;;;10.21;70.83;99066.31;6186211;28;96909;-61
2022/11/15 01:00:25;;;;;;;;;25.20;24.20;;;;;10.25;70.70;99064.84;6165562;28;96777;-61
2022/11/15 01:03:47;;;;;;;;;24.50;23.00;;;;;10.22;70.25;99066.06;6171004;28;99503;-60
2022/11/15 01:07:11;;;;;;;;;24.40;22.60;;;;;9.84;70.13;99049.84;6185497;28;96955;-59
2022/11/15 01:10:33;;;;;;;;;21.00;20.00;;;;;9.89;70.70;99066.19;6186317;28;98149;-60
2022/11/15 01:13:55;;;;;;;;;23.00;21.00;;;;;9.75;70.94;99056.50;6185705;28;98356;-61
2022/11/15 01:17:17;;;;;;;;;23.20;22.20;;;;;9.74;71.27;99054.84;6186354;28;96365;-61
2022/11/15 01:20:42;;;;;;;;;22.50;19.50;;;;;9.74;71.24;99060.25;6186752;28;96271;-61
2022/11/15 01:24:06;;;;;;;;;24.40;20.00;;;;;9.77;71.11;99065.22;6186233;28;96409;-59
2022/11/15 01:27:29;;;;;;;;;19.20;17.20;;;;;9.85;70.61;99061.47;6184034;28;96771;-60
2022/11/15 01:30:51;;;;;;;;;22.00;19.00;;;;;9.82;70.63;99049.22;6184837;28;96309;-59
2022/11/15 01:34:12;;;;;;;;;21.20;18.80;;;;;9.83;71.13;99056.28;6183398;28;96298;-61
2022/11/15 01:37:34;;;;;;;;;21.20;19.20;;;;;9.84;71.01;99049.84;6185505;28;96225;-60
2022/11/15 01:40:57;;;;;;;;;24.00;19.60;;;;;9.89;70.47;99054.59;6186470;28;96268;-59
2022/11/15 01:44:48;;;;;;;;;23.00;20.00;;;;;9.96;70.72;99050.03;6191107;28;96922;-60
2022/11/15 01:48:12;;;;;;;;;20.00;19.00;;;;;10.02;70.36;99053.72;6140829;28;96280;-61
2022/11/15 01:51:34;;;;;;;;;26.80;21.80;;;;;10.07;71.01;99060.09;6189519;28;96521;-61
2022/11/15 01:55:02;;;;;;;;;21.50;20.50;;;;;10.00;70.34;99052.06;6184640;28;96315;-59
2022/11/15 01:58:27;;;;;;;;;19.00;17.00;;;;;9.98;70.40;99051.44;6188371;28;96182;-59
2022/11/15 02:01:49;;;;;;;;;23.00;21.00;;;;;9.99;70.48;99049.59;6189300;28;96417;-61
2022/11/15 02:05:12;;;;;;;;;23.00;19.00;;;;;10.02;70.42;99041.91;6185605;28;98219;-61
2022/11/15 02:08:34;;;;;;;;;19.40;18.00;;;;;9.72;69.63;99037.28;6189599;28;96370;-61
2022/11/15 02:11:56;;;;;;;;;23.00;20.60;;;;;9.75;70.39;99036.84;6190028;28;96302;-61
2022/11/15 02:15:20;;;;;;;;;22.50;19.25;;;;;9.69;70.88;99035.81;6188273;28;96587;-60
2022/11/15 02:18:48;;;;;;;;;22.00;19.00;;;;;9.71;70.67;99033.75;6190891;28;96495;-59
2022/11/15 02:22:20;;;;;;;;;23.00;20.00;;;;;9.81;70.90;99017.16;6189704;28;96940;-62
2022/11/15 02:25:58;;;;;;;;;21.67;18.33;;;;;9.83;70.25;99023.13;6189210;28;97508;-60
2022/11/15 02:29:37;;;;;;;;;23.20;19.00;;;;;9.76;69.99;99017.78;6188576;28;96562;-59
2022/11/15 02:33:08;;;;;;;;;22.00;21.00;;;;;9.68;70.08;99023.41;6201667;28;96221;-60
2022/11/15 02:36:41;;;;;;;;;18.60;17.00;;;;;9.65;70.11;99006.84;6188919;28;96762;-59
2022/11/15 02:40:11;;;;;;;;;19.00;17.40;;;;;9.73;70.56;99012.81;6189377;28;96198;-60
2022/11/15 02:43:59;;;;;;;;;21.40;19.40;;;;;9.77;69.75;99007.84;6181198;28;96318;-60
2022/11/15 02:47:23;;;;;;;;;20.00;18.00;;;;;9.76;68.96;99016.97;6187314;28;96227;-59
2022/11/15 02:50:46;;;;;;;;;19.50;18.25;;;;;9.58;68.72;99012.25;6188510;28;96391;-61
2022/11/15 02:54:13;;;;;;;;;20.00;18.60;;;;;9.49;68.76;99000.91;6179074;28;97614;-60
2022/11/15 02:57:43;;;;;;;;;17.75;17.50;;;;;9.40;68.48;98994.09;6186768;28;96266;-59
2022/11/15 03:01:14;;;;;;;;;17.60;16.40;;;;;9.37;68.62;98988.31;6187375;28;96804;-59
2022/11/15 03:04:42;;;;;;;;;19.00;18.00;;;;;9.38;68.97;98996.16;6188092;28;96450;-60
2022/11/15 03:08:11;;;;;;;;;17.00;15.75;;;;;9.35;67.98;98991.22;6180775;28;96226;-59
2022/11/15 03:11:38;;;;;;;;;14.00;13.60;;;;;9.34;68.19;98994.09;6187395;28;96444;-60
2022/11/15 03:15:04;;;;;;;;;16.00;15.00;;;;;9.38;68.18;98987.28;6188996;28;96260;-61
2022/11/15 03:18:32;;;;;;;;;17.60;16.00;;;;;9.42;68.43;98975.88;6185613;28;96340;-60
2022/11/15 03:21:56;;;;;;;;;20.40;20.00;;;;;9.47;68.53;98983.31;6187095;28;96769;-59
2022/11/15 03:25:23;;;;;;;;;18.20;16.20;;;;;9.34;68.27;98951.88;6188343;28;96230;-61
2022/11/15 03:28:51;;;;;;;;;17.00;16.50;;;;;9.48;68.79;98976.91;6188492;28;96239;-60
2022/11/15 03:32:19;;;;;;;;;16.60;15.60;;;;;9.50;68.59;98972.13;6187525;28;96675;-60
2022/11/15 03:35:45;;;;;;;;;17.00;17.00;;;;;9.52;69.06;98970.06;6197009;28;96320;-60
2022/11/15 03:39:09;;;;;;;;;18.25;15.75;;;;;9.61;69.16;98970.63;6188662;28;96201;-60
2022/11/15 03:42:39;;;;;;;;;17.00;17.00;;;;;9.65;68.59;98963.78;6188236;28;96417;-61
2022/11/15 03:46:05;;;;;;;;;20.60;20.00;;;;;9.65;68.22;98958.41;6165836;28;98115;-59
2022/11/15 03:49:32;;;;;;;;;19.50;17.00;;;;;9.66;68.24;98954.66;6188537;28;96255;-60
2022/11/15 03:52:55;;;;;;;;;20.00;17.00;;;;;9.59;67.70;98954.69;6188820;28;96295;-59
2022/11/15 03:56:17;;;;;;;;;19.00;17.00;;;;;9.51;68.14;98939.63;6188438;28;96246;-61
2022/11/15 03:59:40;;;;;;;;;19.60;17.60;;;;;9.58;68.43;98936.88;6196134;28;97015;-59
2022/11/15 04:03:02;;;;;;;;;20.25;18.50;;;;;9.61;68.12;98931.09;6188101;28;96305;-60
2022/11/15 04:06:24;;;;;;;;;19.00;18.00;;;;;9.51;67.27;98919.94;6195437;28;96301;-60
2022/11/15 04:10:05;;;;;;;;;14.50;12.50;;;;;9.45;67.24;98924.31;6196018;28;96460;-60
2022/11/15 04:13:27;;;;;;;;;16.60;16.00;;;;;9.35;67.43;98909.66;6187667;28;96834;-59
2022/11/15 04:16:50;;;;;;;;;16.80;15.00;;;;;9.31;67.49;98917.34;6194467;28;96232;-60
2022/11/15 04:27:38;;;;;;;;;17.00;16.00;;;;;9.16;67.19;98892.56;6177902;28;96466;-59
2022/11/15 04:31:00;;;;;;;;;17.00;15.80;;;;;9.13;67.56;98884.94;6171626;28;96825;-62
2022/11/15 04:34:24;;;;;;;;;17.40;16.40;;;;;9.17;67.50;98886.16;6189871;28;96772;-60
2022/11/15 04:37:46;;;;;;;;;14.20;12.80;;;;;9.18;67.51;98881.59;6186765;28;96310;-59
2022/11/15 04:41:10;;;;;;;;;16.33;15.33;;;;;9.13;67.51;98880.38;6184838;28;96942;-61
2022/11/15 04:44:32;;;;;;;;;15.00;14.00;;;;;9.13;67.47;98875.00;6192271;28;96382;-62
2022/11/15 04:47:54;;;;;;;;;14.60;13.60;;;;;9.04;67.54;98873.56;6185211;28;96848;-61
2022/11/15 04:51:17;;;;;;;;;19.80;18.00;;;;;9.06;67.64;98868.81;6189415;28;96251;-60
2022/11/15 04:54:38;;;;;;;;;17.00;16.00;;;;;9.01;67.24;98867.78;6195578;28;96339;-60
2022/11/15 04:58:01;;;;;;;;;12.00;11.00;;;;;9.01;67.77;98862.41;6190516;28;96267;-60
2022/11/15 05:01:22;;;;;;;;;14.00;14.00;;;;;9.01;67.50;98870.47;6170053;28;96662;-60
2022/11/15 05:04:44;;;;;;;;;16.25;14.25;;;;;9.07;68.29;98864.25;6197495;28;96283;-60
2022/11/15 05:08:08;;;;;;;;;17.20;17.00;;;;;9.15;68.33;98864.00;6183700;28;96170;-60
2022/11/15 05:11:30;;;;;;;;;14.80;13.00;;;;;9.20;67.92;98855.31;6189429;28;97461;-60
2022/11/15 05:14:51;;;;;;;;;15.00;13.00;;;;;9.22;68.34;98859.44;6182191;28;96262;-63
2022/11/15 05:18:13;;;;;;;;;16.00;15.00;;;;;9.22;68.02;98843.31;6182958;28;96442;-60
2022/11/15 05:21:41;;;;;;;;;14.00;14.00;;;;;9.30;68.12;98850.28;6190918;28;96225;-60
2022/11/15 05:25:06;;;;;;;;;15.67;13.67;;;;;9.30;67.64;98845.75;6190374;28;96858;-60
2022/11/15 05:28:27;;;;;;;;;15.00;13.60;;;;;9.30;67.13;98842.22;6181533;28;96439;-61
2022/11/15 05:31:49;;;;;;;;;15.60;14.60;;;;;9.30;67.03;98845.75;6165061;28;96804;-63
2022/11/15 05:35:16;;;;;;;;;15.00;14.00;;;;;9.17;66.94;98839.59;6172835;28;96829;-61
2022/11/15 05:38:38;;;;;;;;;18.00;17.00;;;;;9.05;66.98;98831.38;6188410;28;96258;-59
2022/11/15 05:42:07;;;;;;;;;15.20;15.00;;;;;8.87;66.85;98828.53;6180170;28;98057;-60
2022/11/15 05:45:29;;;;;;;;;21.00;19.00;;;;;8.74;67.19;98829.44;6174527;28;96346;-60
2022/11/15 05:48:54;;;;;;;;;26.25;25.75;;;;;8.79;68.09;98837.69;6174850;28;96357;-61
2022/11/15 05:52:19;;;;;;;;;15.00;15.00;;;;;8.82;67.74;98836.41;6184070;28;97150;-60
2022/11/15 05:55:41;;;;;;;;;19.00;15.00;;;;;8.88;67.88;98836.41;6176996;28;96401;-60
2022/11/15 05:59:05;;;;;;;;;22.40;19.40;;;;;8.94;68.21;98842.81;6188994;28;96354;-60
2022/11/15 06:02:28;;;;;;;;;17.00;15.60;;;;;8.87;65.91;98847.38;6182367;28;96244;-60
2022/11/15 06:05:50;;;;;;;;;19.00;18.00;;;;;8.85;66.14;98836.81;6198866;28;96250;-61
2022/11/15 06:09:12;;;;;;;;;18.00;16.00;;;;;8.70;65.54;98839.75;6189720;28;96261;-60
2022/11/15 06:12:34;;;;;;;;;17.00;15.00;;;;;8.60;66.06;98833.19;6190071;28;96931;-59
2022/11/15 06:15:58;;;;;;;;;18.00;15.00;;;;;8.62;66.22;98825.72;6193879;28;96809;-60
2022/11/15 06:19:19;;;;;;;;;17.00;15.60;;;;;8.42;66.50;98817.69;6189564;28;96234;-60
2022/11/15 06:22:41;;;;;;;;;16.67;16.00;;;;;8.48;67.69;98822.25;6182962;28;96303;-61
2022/11/15 06:26:04;;;;;;;;;24.00;22.00;;;;;8.58;67.99;98825.31;6193805;28;96509;-60
2022/11/15 06:29:25;;;;;;;;;19.00;17.25;;;;;8.64;67.28;98824.50;6198369;28;96412;-60
2022/11/15 06:32:49;;;;;;;;;18.40;17.40;;;;;8.38;66.66;98808.41;6180578;28;96341;-60
2022/11/15 06:36:15;;;;;;;;;16.20;15.60;;;;;8.36;66.87;98826.59;6188200;28;96232;-61
2022/11/15 06:39:38;;;;;;;;;21.80;20.80;;;;;8.42;67.24;98831.13;6178095;28;96044;-60
2022/11/15 06:43:01;;;;;;;;;21.50;19.25;;;;;8.37;66.91;98820.19;6196115;28;96215;-60
2022/11/15 06:46:22;;;;;;;;;18.00;17.00;;;;;8.50;67.36;98825.53;6203391;28;96267;-60
2022/11/15 06:49:45;;;;;;;;;19.00;16.00;;;;;8.52;67.40;98822.63;6189011;28;96590;-60
2022/11/15 06:53:07;;;;;;;;;19.00;17.20;;;;;8.27;67.24;98817.91;6213722;28;96397;-61
2022/11/15 06:56:29;;;;;;;;;22.40;20.60;;;;;8.38;68.04;98823.72;6192216;28;97721;-60
2022/11/15 06:59:51;;;;;;;;;21.00;17.00;;;;;8.31;68.44;98826.38;6189360;28;96234;-61
2022/11/15 07:03:13;;;;;;;;;17.00;14.75;;;;;8.50;68.07;98822.03;6194848;28;96530;-62
2022/11/15 07:06:36;;;;;;;;;18.00;17.00;;;;;8.59;67.61;98818.09;6173634;28;96640;-60
2022/11/15 07:09:58;;;;;;;;;22.60;21.00;;;;;8.79;67.86;98829.63;6194368;28;96629;-63
2022/11/15 07:13:20;;;;;;;;;16.20;16.00;;;;;8.97;67.55;98820.84;6178892;28;97115;-63
2022/11/15 07:16:42;;;;;;;;;16.00;15.00;;;;;9.07;66.44;98826.63;6178415;28;96349;-63
2022/11/15 07:20:05;;;;;;;;;19.40;17.60;;;;;9.29;66.20;98829.81;6187107;28;97048;-63
2022/11/15 07:23:28;;;;;;;;;19.00;17.00;;;;;9.51;68.17;98829.28;6186510;28;96876;-62
2022/11/15 07:26:51;;;;;;;;;21.60;19.00;;;;;9.71;66.31;98822.94;6183053;28;96660;-63
2022/11/15 07:30:14;;;;;;;;;19.67;18.67;;;;;9.81;66.09;98820.59;6188762;28;97059;-62
2022/11/15 07:33:37;;;;;;;;;19.00;17.40;;;;;9.88;64.61;98808.72;6187109;28;96482;-61
2022/11/15 07:36:59;;;;;;;;;17.60;15.00;;;;;9.95;64.44;98795.22;6186996;28;96813;-61
2022/11/15 07:40:23;;;;;;;;;19.75;18.00;;;;;9.98;64.68;98803.66;6187078;28;96826;-63
2022/11/15 07:43:44;;;;;;;;;20.00;18.00;;;;;10.00;63.95;98806.16;6185112;28;96495;-61
2022/11/15 07:47:07;;;;;;;;;19.20;18.20;;;;;10.02;63.69;98808.63;6185074;28;97654;-62
2022/11/15 07:50:29;;;;;;;;;16.60;13.60;;;;;10.09;63.34;98806.69;6186754;28;97222;-63
2022/11/15 07:53:51;;;;;;;;;16.00;14.60;;;;;10.18;63.10;98810.78;6186605;28;96223;-63
2022/11/15 07:57:14;;;;;;;;;17.75;16.75;;;;;10.28;63.60;98801.16;6168350;28;96642;-61
2022/11/15 08:00:37;;;;;;;;;18.60;18.60;;;;;10.41;64.16;98801.03;6190008;28;97741;-62
2022/11/15 08:03:58;;;;;;;;;18.00;17.00;;;;;10.57;63.75;98794.22;6187952;28;96434;-62
2022/11/15 08:07:20;;;;;;;;;28.40;27.00;;;;;10.75;62.71;98793.44;6187820;28;96871;-61
2022/11/15 08:10:42;;;;;;;;;16.80;16.80;;;;;10.92;62.30;98793.63;6187229;28;96260;-61
2022/11/15 08:14:04;;;;;;;;;17.75;17.75;;;;;11.09;61.80;98794.69;6187883;28;96282;-63
2022/11/15 08:17:26;;;;;;;;;19.00;16.00;;;;;11.28;60.40;98788.19;6169113;28;96732;-62
2022/11/15 08:20:49;;;;;;;;;16.00;15.60;;;;;11.47;59.68;98792.50;6188312;28;96242;-63
2022/11/15 08:24:11;;;;;;;;;16.60;15.00;;;;;11.68;59.08;98785.72;6187989;28;96216;-61
2022/11/15 08:27:33;;;;;;;;;19.40;18.60;;;;;11.67;58.01;98779.53;6187878;28;96429;-62
2022/11/15 08:30:56;;;;;;;;;19.60;17.60;;;;;11.85;57.89;98786.75;6187830;28;96477;-61
2022/11/15 08:34:18;;;;;;;;;19.40;18.40;;;;;12.10;57.94;98781.13;6187625;28;96375;-61
2022/11/15 08:37:40;;;;;;;;;19.00;16.00;;;;;12.29;56.91;98768.31;6187449;28;96257;-62
2022/11/15 08:41:05;;;;;;;;;22.20;19.00;;;;;12.40;57.14;98775.63;6187594;28;96555;-62
2022/11/15 08:44:27;;;;;;;;;22.60;18.60;;;;;12.49;56.75;98777.72;6187576;28;96366;-62
2022/11/15 08:47:50;;;;;;;;;21.60;19.60;;;;;12.35;56.02;98779.03;6187199;28;96481;-61
2022/11/15 08:51:15;;;;;;;;;20.50;19.00;;;;;12.48;56.94;98784.19;6188901;28;96909;-62
2022/11/15 08:54:37;;;;;;;;;20.00;18.80;;;;;12.69;56.29;98781.94;6191034;28;96387;-62
2022/11/15 08:57:58;;;;;;;;;20.60;18.60;;;;;12.71;54.51;98780.63;6191279;28;96417;-61
2022/11/15 09:01:21;;;;;;;;;20.80;18.00;;;;;12.78;54.51;98770.50;6191188;28;96498;-63
2022/11/15 09:04:45;;;;;;;;;20.75;19.25;;;;;12.88;55.05;98772.59;6191538;28;96250;-62
2022/11/15 09:08:07;;;;;;;;;23.60;21.00;;;;;13.13;55.23;98772.31;6172934;28;97302;-62
2022/11/15 09:11:50;;;;;;;;;17.67;16.67;;;;;13.31;54.67;98772.94;6191334;28;97483;-62
2022/11/15 09:15:12;;;;;;;;;18.20;16.40;;;;;13.46;55.00;98761.59;6190563;28;96263;-62
2022/11/15 09:18:35;;;;;;;;;21.60;20.00;;;;;13.65;54.57;98759.47;6191456;28;96256;-63
2022/11/15 09:21:58;;;;;;;;;24.80;21.00;;;;;13.74;53.53;98766.94;6190907;28;96887;-61
2022/11/15 09:25:19;;;;;;;;;24.00;21.60;;;;;13.75;53.70;98756.94;6190963;28;96674;-62
2022/11/15 09:28:42;;;;;;;;;21.25;20.25;;;;;13.73;53.43;98753.66;6190751;28;96852;-61
2022/11/15 09:32:04;;;;;;;;;22.60;21.00;;;;;13.74;52.84;98756.13;6191157;28;96290;-62
2022/11/15 09:35:26;;;;;;;;;27.00;24.50;;;;;13.69;52.92;98750.59;6190942;28;96498;-62
2022/11/15 09:38:49;;;;;;;;;21.00;18.20;;;;;13.80;53.69;98743.47;6172150;28;96656;-62
2022/11/15 09:42:32;;;;;;;;;21.40;20.00;;;;;14.23;53.33;98748.22;6190776;28;96422;-62
2022/11/15 09:46:03;;;;;;;;;20.75;20.00;;;;;14.53;51.77;98748.69;6190691;28;96313;-63
2022/11/15 09:49:41;;;;;;;;;22.40;20.40;;;;;14.68;51.39;98754.31;6092066;28;96375;-61
2022/11/15 09:52:56;;;;;;;;;24.00;21.25;;;;;14.61;51.16;98756.38;6190515;28;96244;-63
2022/11/15 09:56:04;;;;;;;;;23.00;21.00;;;;;14.50;51.85;98746.50;6171481;28;97828;-63
2022/11/15 09:59:22;;;;;;;;;29.80;27.20;;;;;14.20;51.79;98748.72;6172663;28;97017;-64
2022/11/15 10:02:42;;;;;;;;;24.00;22.60;;;;;13.89;52.56;98745.53;6189999;28;97654;-64
2022/11/15 10:05:48;;;;;;;;;26.00;23.00;;;;;13.81;52.75;98737.00;6190589;28;96782;-63
2022/11/15 10:08:58;;;;;;;;;28.40;26.40;;;;;13.66;53.61;98739.44;6172159;28;96357;-63
2022/11/15 10:12:04;;;;;;;;;26.00;25.00;;;;;13.58;53.49;98723.63;6190226;28;96979;-62
2022/11/15 10:15:15;;;;;;;;;25.60;22.00;;;;;13.65;53.47;98721.53;6190326;28;96444;-63
2022/11/15 10:18:27;;;;;;;;;26.40;24.00;;;;;13.76;53.77;98718.78;6190056;28;96488;-62
2022/11/15 10:21:44;;;;;;;;;22.60;21.00;;;;;13.99;53.13;98719.66;6190250;28;96352;-61
2022/11/15 10:24:47;;;;;;;;;27.75;24.75;;;;;14.40;52.54;98715.69;6171835;28;96547;-63
2022/11/15 10:27:59;;;;;;;;;25.80;23.80;;;;;15.53;50.76;98698.56;6189405;28;97512;-62
2022/11/15 10:31:02;;;;;;;;;25.00;23.40;;;;;16.55;47.87;98691.91;6189782;28;96379;-64
2022/11/15 10:34:14;;;;;;;;;25.20;23.80;;;;;18.46;44.31;98687.78;6190069;28;96764;-63
2022/11/15 10:37:29;;;;;;;;;28.00;25.00;;;;;19.39;40.83;98686.00;6189593;28;96516;-64
2022/11/15 10:40:32;;;;;;;;;23.00;22.20;;;;;20.13;39.81;98673.94;6171401;28;96820;-63
2022/11/15 10:43:37;;;;;;;;;22.60;20.80;;;;;20.79;37.82;98669.66;6189288;28;96264;-64
2022/11/15 10:46:42;;;;;;;;;22.80;20.80;;;;;21.87;35.26;98663.13;6189563;28;96456;-64
2022/11/15 10:50:02;;;;;;;;;24.00;21.00;;;;;23.20;33.58;98658.34;6171554;28;96361;-64
2022/11/15 10:53:16;;;;;;;;;21.60;18.00;;;;;24.48;30.62;98654.06;6189655;28;96683;-65
2022/11/15 10:56:23;;;;;;;;;21.00;20.00;;;;;25.51;29.16;98654.28;6189184;28;96413;-66
2022/11/15 10:59:33;;;;;;;;;21.00;20.00;;;;;26.16;28.69;98644.94;6170598;28;98745;-65
2022/11/15 11:02:57;;;;;;;;;21.50;20.75;;;;;26.99;27.71;98645.28;6189151;28;96790;-65
2022/11/15 11:06:10;;;;;;;;;22.25;20.75;;;;;27.64;26.05;98630.81;6169898;28;98459;-65
2022/11/15 11:09:24;;;;;;;;;21.00;19.00;;;;;28.48;25.71;98620.28;6189106;28;96316;-65
2022/11/15 11:12:31;;;;;;;;;23.60;21.60;;;;;28.96;25.28;98616.72;6189018;28;96471;-66
2022/11/15 11:15:36;;;;;;;;;22.60;21.60;;;;;29.59;24.30;98606.72;6187799;28;96188;-66
2022/11/15 11:18:48;;;;;;;;;23.00;22.00;;;;;30.24;23.36;98615.69;6189058;28;96213;-65
2022/11/15 11:22:02;;;;;;;;;29.80;25.00;;;;;30.60;22.20;98597.91;6188895;28;96499;-66
2022/11/15 11:25:17;;;;;;;;;21.00;20.60;;;;;31.04;22.25;98604.16;6189124;28;98602;-66
2022/11/15 11:28:40;;;;;;;;;29.00;27.20;;;;;31.44;21.92;98599.06;6171236;28;97024;-66
2022/11/15 11:31:55;;;;;;;;;25.00;25.00;;;;;31.66;21.13;98598.38;6170284;28;96358;-67
2022/11/15 11:35:09;;;;;;;;;27.40;25.00;;;;;31.66;20.93;98598.38;6188892;28;96598;-66
2022/11/15 11:38:28;;;;;;;;;24.00;23.00;;;;;31.79;21.27;98597.03;6170882;28;96339;-65
2022/11/15 11:41:44;;;;;;;;;30.60;25.00;;;;;31.70;21.43;98595.66;6192341;28;96243;-66
2022/11/15 11:44:58;;;;;;;;;27.00;25.00;;;;;31.74;20.95;98591.75;6186055;28;96287;-66
2022/11/15 11:48:13;;;;;;;;;29.20;27.00;;;;;30.78;20.97;98579.69;6187220;28;96278;-65
2022/11/15 11:51:21;;;;;;;;;33.00;27.00;;;;;29.43;23.05;98567.78;6186910;28;96388;-65
2022/11/15 11:54:35;;;;;;;;;31.60;28.60;;;;;27.71;25.09;98563.78;6179120;28;96608;-66
2022/11/15 11:57:47;;;;;;;;;29.00;27.00;;;;;26.12;26.87;98563.88;6177043;28;96681;-66
2022/11/15 12:00:54;;;;;;;;;35.75;30.00;;;;;24.73;29.02;98550.53;6183113;28;96707;-63
2022/11/15 12:04:09;;;;;;;;;36.40;31.40;;;;;23.45;30.58;98544.19;6178194;28;96262;-65
2022/11/15 12:07:18;;;;;;;;;36.80;32.00;;;;;22.45;32.40;98548.09;6176437;28;96436;-63
2022/11/15 12:10:26;;;;;;;;;35.40;30.00;;;;;21.52;34.09;98539.16;6178636;28;96730;-64
2022/11/15 12:13:36;;;;;;;;;38.60;33.00;;;;;20.62;35.70;98531.25;6181301;28;96326;-63
2022/11/15 12:16:43;;;;;;;;;38.25;32.25;;;;;19.89;36.78;98536.25;6172631;28;96256;-63
2022/11/15 12:19:48;;;;;;;;;36.25;32.00;;;;;19.33;37.45;98535.97;6177038;28;97200;-62
2022/11/15 12:22:56;;;;;;;;;40.40;33.40;;;;;18.89;38.62;98530.59;6179913;28;97453;-63
2022/11/15 12:26:05;;;;;;;;;47.00;36.00;;;;;18.51;39.13;98526.72;6182629;28;96477;-63
2022/11/15 12:29:16;;;;;;;;;44.00;34.00;;;;;18.19;40.22;98529.88;6187474;28;96281;-62
2022/11/15 12:32:27;;;;;;;;;44.00;35.60;;;;;17.92;41.02;98521.25;6155714;28;98496;-62
2022/11/15 12:35:36;;;;;;;;;45.50;36.00;;;;;17.67;41.88;98516.69;6182505;28;97238;-63
2022/11/15 12:38:54;;;;;;;;;43.00;35.20;;;;;17.51;42.31;98523.22;6187321;28;96532;-62
2022/11/15 12:42:31;;;;;;;;;43.00;33.00;;;;;17.38;42.86;98512.91;6157044;28;97141;-64
2022/11/15 12:45:37;;;;;;;;;46.25;37.25;;;;;17.27;43.52;98501.19;6175625;28;97532;-63
2022/11/15 12:48:50;;;;;;;;;42.40;35.60;;;;;17.19;43.74;98504.47;6186768;28;96380;-62
2022/11/15 12:52:10;;;;;;;;;46.40;37.60;;;;;16.94;43.68;98488.13;6186951;28;96513;-63
2022/11/15 12:55:33;;;;;;;;;44.25;35.00;;;;;16.85;44.57;98501.50;6186740;28;96289;-64
2022/11/15 12:58:46;;;;;;;;;41.00;35.00;;;;;16.71;44.93;98501.19;6144430;28;98772;-62
2022/11/15 13:02:19;;;;;;;;;50.00;38.00;;;;;16.60;45.50;98494.09;6185521;28;96271;-63
2022/11/15 13:05:53;;;;;;;;;41.25;33.25;;;;;16.40;46.59;98483.97;6186100;28;96496;-64
2022/11/15 13:08:57;;;;;;;;;45.50;36.00;;;;;16.30;46.92;98485.84;6176253;28;96374;-63
2022/11/15 13:12:02;;;;;;;;;45.80;36.00;;;;;16.18;47.52;98477.91;6182775;28;97656;-63
2022/11/15 13:15:33;;;;;;;;;42.00;34.80;;;;;16.12;47.59;98481.72;6186696;28;96411;-64
2022/11/15 13:18:53;;;;;;;;;38.40;33.00;;;;;16.03;47.99;98483.31;6185591;28;96344;-62
2022/11/15 13:25:36;;;;;;;;;42.20;34.60;;;;;15.89;48.71;98471.28;6185995;28;97842;-62
2022/11/15 13:28:45;;;;;;;;;41.20;34.00;;;;;15.85;48.93;98467.47;6185744;28;97060;-63
2022/11/15 13:31:49;;;;;;;;;43.50;33.50;;;;;15.84;49.15;98471.28;6168558;28;96868;-62
2022/11/15 13:34:53;;;;;;;;;44.75;34.50;;;;;15.78;49.19;98465.03;6155531;28;96963;-63
2022/11/15 13:37:57;;;;;;;;;41.00;33.80;;;;;15.69;49.22;98453.00;6173011;28;96853;-62
2022/11/15 13:41:17;;;;;;;;;39.00;34.00;;;;;15.75;49.42;98451.13;6190290;28;97004;-62
2022/11/15 13:44:25;;;;;;;;;38.60;32.00;;;;;15.76;49.61;98452.78;6190963;28;97030;-62
2022/11/15 13:47:31;;;;;;;;;38.00;33.00;;;;;15.78;49.49;98440.56;6190198;28;96234;-62
2022/11/15 13:50:38;;;;;;;;;41.60;35.40;;;;;15.81;49.39;98434.59;6190711;28;96340;-62
2022/11/15 13:53:46;;;;;;;;;37.40;32.00;;;;;15.83;49.51;98437.03;6190180;28;96688;-62
2022/11/15 13:57:00;;;;;;;;;38.20;32.80;;;;;15.81;49.62;98431.88;6190078;28;96944;-63
2022/11/15 14:00:07;;;;;;;;;35.75;32.00;;;;;15.81;49.67;98437.31;6172762;28;97205;-62
2022/11/15 14:03:20;;;;;;;;;36.40;32.00;;;;;15.81;49.70;98441.91;6190267;28;96323;-62
2022/11/15 14:06:25;;;;;;;;;40.00;33.60;;;;;15.78;49.72;98432.41;6190354;28;96452;-63
2022/11/15 14:09:40;;;;;;;;;39.00;33.00;;;;;15.71;50.08;98439.16;6189818;28;96625;-62
2022/11/15 14:12:51;;;;;;;;;35.80;32.00;;;;;15.66;50.26;98431.81;6189808;28;96618;-63
2022/11/15 14:15:55;;;;;;;;;40.60;33.60;;;;;15.65;50.43;98434.78;6176308;28;97200;-63
2022/11/15 14:18:59;;;;;;;;;34.00;31.00;;;;;15.63;50.59;98434.25;6189597;28;96271;-63
2022/11/15 14:22:13;;;;;;;;;36.20;32.00;;;;;15.64;50.67;98433.16;6189471;28;97625;-62
2022/11/15 14:25:19;;;;;;;;;41.60;35.00;;;;;15.63;50.79;98426.91;6144548;28;96734;-63
2022/11/15 14:28:42;;;;;;;;;39.20;32.60;;;;;15.63;51.01;98416.03;6170603;28;96363;-63
2022/11/15 14:31:46;;;;;;;;;40.80;33.20;;;;;15.64;50.86;98404.06;6167886;28;97505;-63
2022/11/15 14:34:51;;;;;;;;;36.80;32.00;;;;;15.61;51.02;98410.03;6172482;28;96708;-64
2022/11/15 14:37:54;;;;;;;;;39.60;33.60;;;;;15.62;50.92;98400.81;6170905;28;96532;-62
2022/11/15 14:40:58;;;;;;;;;40.60;33.40;;;;;15.59;51.25;98415.72;6169895;28;96316;-62
2022/11/15 14:44:03;;;;;;;;;37.80;32.80;;;;;15.60;51.41;98414.66;6176325;28;96672;-62
2022/11/15 14:47:06;;;;;;;;;37.00;32.20;;;;;15.60;51.71;98416.56;6189469;28;96766;-63
2022/11/15 14:50:13;;;;;;;;;37.75;33.00;;;;;15.56;51.71;98408.13;6171077;28;97109;-63
2022/11/15 14:53:17;;;;;;;;;41.00;34.60;;;;;15.51;52.06;98408.09;6189413;28;96407;-62
2022/11/15 14:56:20;;;;;;;;;40.75;33.00;;;;;15.45;52.30;98400.97;6185743;28;96755;-63
2022/11/15 14:59:25;;;;;;;;;43.00;33.40;;;;;15.40;52.45;98398.22;6190360;28;96427;-63
2022/11/15 15:02:28;;;;;;;;;40.60;32.00;;;;;15.38;52.58;98389.53;6171208;28;98548;-63
2022/11/15 15:05:34;;;;;;;;;42.75;33.00;;;;;15.38;52.32;98389.53;6190531;28;96272;-64
2022/11/15 15:08:37;;;;;;;;;39.80;33.80;;;;;15.37;52.55;98387.91;6190902;28;96677;-64
2022/11/15 15:11:41;;;;;;;;;39.80;33.00;;;;;15.32;52.70;98385.16;6185426;28;96470;-63
2022/11/15 15:14:47;;;;;;;;;40.75;32.00;;;;;15.32;52.71;98384.34;6188929;28;96375;-63
2022/11/15 15:17:50;;;;;;;;;39.60;33.40;;;;;15.31;52.68;98371.84;6189164;28;96353;-63
2022/11/15 15:20:59;;;;;;;;;38.50;33.00;;;;;15.29;53.34;98376.75;6196409;28;96512;-63
2022/11/15 15:24:03;;;;;;;;;39.50;33.50;;;;;15.30;52.92;98367.47;6170556;28;96875;-63
2022/11/15 15:27:06;;;;;;;;;43.60;35.80;;;;;15.31;52.82;98371.84;6169240;28;98377;-63
2022/11/15 15:30:12;;;;;;;;;46.80;37.00;;;;;15.29;53.04;98383.00;6168854;28;96380;-63